createdAt,value
2023-03-07T00:01:31.240Z,70.57
2023-03-07T00:04:19.776Z,70.23
2023-03-07T00:07:09.594Z,70.28
2023-03-07T00:09:58.146Z,69.66
2023-03-07T00:12:46.711Z,70.50
2023-03-07T00:15:35.235Z,70.51
2023-03-07T00:18:24.215Z,71.16
2023-03-07T00:21:14.471Z,70.64
2023-03-07T00:24:04.665Z,70.06
2023-03-07T00:26:53.189Z,70.20
2023-03-07T00:29:41.751Z,69.53
2023-03-07T00:32:30.296Z,69.46
2023-03-07T00:35:18.930Z,69.25
2023-03-07T00:38:07.403Z,69.46
2023-03-07T00:41:02.220Z,70.08
2023-03-07T00:43:50.913Z,69.63
2023-03-07T00:46:39.393Z,69.55
2023-03-07T00:49:28.279Z,68.95
2023-03-07T00:52:16.788Z,68.78
2023-03-07T00:55:05.845Z,68.04
2023-03-07T00:57:55.625Z,68.01
2023-03-07T01:00:44.341Z,68.37
2023-03-07T01:03:33.273Z,68.02
2023-03-07T01:06:23.508Z,67.83
2023-03-07T01:09:12.262Z,68.30
2023-03-07T01:12:00.771Z,67.64
2023-03-07T01:14:52.378Z,67.69
2023-03-07T01:17:40.818Z,67.92
2023-03-07T01:20:31.945Z,67.36
2023-03-07T01:23:20.371Z,67.84
2023-03-07T01:26:09.181Z,67.97
2023-03-07T01:28:58.906Z,68.19
2023-03-07T01:31:48.820Z,68.66
2023-03-07T01:34:37.776Z,69.12
2023-03-07T01:37:26.429Z,69.90
2023-03-07T01:40:15.193Z,70.76
2023-03-07T01:43:26.262Z,72.70
2023-03-07T01:46:41.700Z,74.37
2023-03-07T01:49:35.251Z,75.67
2023-03-07T01:52:26.783Z,76.22
2023-03-07T01:55:17.638Z,77.35
2023-03-07T01:58:08.378Z,77.47
2023-03-07T02:00:56.894Z,78.39
2023-03-07T02:03:48.105Z,79.61
2023-03-07T02:06:38.851Z,80.22
2023-03-07T02:09:28.009Z,81.04
2023-03-07T02:12:16.732Z,82.28
2023-03-07T02:15:05.994Z,81.61
2023-03-07T02:17:54.809Z,83.81
2023-03-07T02:20:47.683Z,85.12
2023-03-07T02:23:42.929Z,85.77
2023-03-07T02:26:43.969Z,86.56
2023-03-07T02:29:32.612Z,86.86
2023-03-07T02:32:21.422Z,87.85
2023-03-07T02:35:15.037Z,87.94
2023-03-07T02:38:04.937Z,87.68
2023-03-07T02:40:54.684Z,88.68
2023-03-07T02:43:44.531Z,88.72
2023-03-07T02:46:33.066Z,88.11
2023-03-07T02:49:21.702Z,87.04
2023-03-07T02:52:10.605Z,86.68
2023-03-07T02:54:59.201Z,87.39
2023-03-07T02:57:47.669Z,87.77
2023-03-07T03:00:37.959Z,88.28
2023-03-07T03:03:26.466Z,88.93
2023-03-07T03:06:14.914Z,88.35
2023-03-07T03:09:04.363Z,88.85
2023-03-07T03:11:52.808Z,88.30
2023-03-07T03:14:41.325Z,87.27
2023-03-07T03:17:31.133Z,85.81
2023-03-07T03:20:19.713Z,85.80
2023-03-07T03:23:08.311Z,85.56
2023-03-07T03:26:00.371Z,84.25
2023-03-07T03:28:48.902Z,82.61
2023-03-07T03:31:37.568Z,81.38
2023-03-07T03:34:27.498Z,81.25
2023-03-07T03:37:15.930Z,81.25
2023-03-07T03:40:06.960Z,80.19
2023-03-07T03:42:58.097Z,79.30
2023-03-07T03:45:54.974Z,78.65
2023-03-07T03:48:44.381Z,78.69
2023-03-07T03:51:34.276Z,77.89
2023-03-07T03:54:22.736Z,77.86
2023-03-07T03:57:12.745Z,77.74
2023-03-07T04:00:01.208Z,78.52
2023-03-07T04:02:49.814Z,76.87
2023-03-07T04:05:38.456Z,77.16
2023-03-07T04:08:28.330Z,77.29
2023-03-07T04:11:17.172Z,77.87
2023-03-07T04:14:05.663Z,77.49
2023-03-07T04:16:54.175Z,76.43
2023-03-07T04:19:42.644Z,77.10
2023-03-07T04:22:31.146Z,76.03
2023-03-07T04:25:20.958Z,75.36
2023-03-07T04:28:09.715Z,74.60
2023-03-07T04:30:58.246Z,74.09
2023-03-07T04:33:47.856Z,74.70
2023-03-07T04:36:36.383Z,74.70
2023-03-07T04:39:24.862Z,73.98
2023-03-07T04:42:14.674Z,73.19
2023-03-07T04:45:04.790Z,73.86
2023-03-07T04:47:53.389Z,72.97
2023-03-07T04:50:41.891Z,73.00
2023-03-07T04:53:30.326Z,72.48
2023-03-07T04:56:18.983Z,72.11
2023-03-07T04:59:08.783Z,71.93
2023-03-07T05:01:57.267Z,71.16
2023-03-07T05:04:45.935Z,70.47
2023-03-07T05:07:34.485Z,71.04
2023-03-07T05:10:22.897Z,71.13
2023-03-07T05:13:11.452Z,70.17
2023-03-07T05:16:01.369Z,70.02
2023-03-07T05:18:49.901Z,69.06
2023-03-07T05:21:40.579Z,69.06
2023-03-07T05:24:29.245Z,68.44
2023-03-07T05:27:17.725Z,68.76
2023-03-07T05:30:07.313Z,68.90
2023-03-07T05:32:57.181Z,68.53
2023-03-07T05:35:45.680Z,67.84
2023-03-07T05:38:34.211Z,68.20
2023-03-07T05:41:23.005Z,68.32
2023-03-07T05:44:11.482Z,68.19
2023-03-07T05:46:59.984Z,67.38
2023-03-07T05:49:49.764Z,67.80
2023-03-07T05:52:38.289Z,67.75
2023-03-07T05:55:26.832Z,67.99
2023-03-07T05:58:15.290Z,67.97
2023-03-07T06:01:04.062Z,68.23
2023-03-07T06:03:52.554Z,68.08
2023-03-07T06:06:42.368Z,67.81
2023-03-07T06:09:30.827Z,67.26
2023-03-07T06:12:19.361Z,67.62
2023-03-07T06:15:09.561Z,67.42
2023-03-07T06:17:58.009Z,66.56
2023-03-07T06:20:54.987Z,67.72
2023-03-07T06:23:45.412Z,66.95
2023-03-07T06:26:34.460Z,66.78
2023-03-07T06:29:22.949Z,66.78
2023-03-07T06:32:11.498Z,66.63
2023-03-07T06:35:00.319Z,66.88
2023-03-07T06:37:48.774Z,66.91
2023-03-07T06:40:39.151Z,65.83
2023-03-07T06:43:27.713Z,65.96
2023-03-07T06:46:18.126Z,65.37
2023-03-07T06:49:06.585Z,64.89
2023-03-07T06:51:55.013Z,65.09
2023-03-07T06:54:43.496Z,65.39
2023-03-07T06:57:34.362Z,66.14
2023-03-07T07:00:23.672Z,65.30
2023-03-07T07:03:13.955Z,65.79
2023-03-07T07:06:03.693Z,65.23
2023-03-07T07:08:55.423Z,63.93
2023-03-07T07:11:43.965Z,64.34
2023-03-07T07:14:34.528Z,64.24
2023-03-07T07:17:23.027Z,63.99
2023-03-07T07:20:12.850Z,64.69
2023-03-07T07:23:01.361Z,64.23
2023-03-07T07:25:49.894Z,63.79
2023-03-07T07:28:38.433Z,63.58
2023-03-07T07:31:28.338Z,63.21
2023-03-07T07:34:17.060Z,62.72
2023-03-07T07:37:05.953Z,63.90
2023-03-07T07:39:54.421Z,63.30
2023-03-07T07:42:43.340Z,64.00
2023-03-07T07:45:31.945Z,62.77
2023-03-07T07:48:21.795Z,62.56
2023-03-07T07:51:10.597Z,62.44
2023-03-07T07:53:59.043Z,62.44
2023-03-07T07:56:47.640Z,62.45
2023-03-07T07:59:36.157Z,61.32
2023-03-07T08:02:25.331Z,60.82
2023-03-07T08:05:15.174Z,61.57
2023-03-07T08:08:03.700Z,61.05
2023-03-07T08:10:52.291Z,61.26
2023-03-07T08:13:41.066Z,60.96
2023-03-07T08:16:29.496Z,61.08
2023-03-07T08:19:18.020Z,60.24
2023-03-07T08:22:07.862Z,59.73
2023-03-07T08:24:56.349Z,59.61
2023-03-07T08:27:45.029Z,59.67
2023-03-07T08:30:35.320Z,59.28
2023-03-07T08:33:23.896Z,59.35
2023-03-07T08:36:12.386Z,59.57
2023-03-07T08:39:02.286Z,59.03
2023-03-07T08:41:51.109Z,59.01
2023-03-07T08:44:39.608Z,59.70
2023-03-07T08:47:28.151Z,60.10
2023-03-07T08:50:16.836Z,60.08
2023-03-07T08:53:27.698Z,60.12
2023-03-07T08:56:40.610Z,60.03
2023-03-07T08:59:41.215Z,60.10
2023-03-07T09:02:35.055Z,60.17
2023-03-07T09:05:39.225Z,60.76
2023-03-07T09:08:33.558Z,60.58
2023-03-07T09:11:42.479Z,60.75
2023-03-07T09:14:39.761Z,60.17
2023-03-07T09:17:52.828Z,60.05
2023-03-07T09:21:02.638Z,61.55
2023-03-07T09:23:55.002Z,60.83
2023-03-07T09:26:59.275Z,61.27
2023-03-07T09:29:49.443Z,61.19
2023-03-07T09:32:53.966Z,61.44
2023-03-07T09:35:43.101Z,61.61
2023-03-07T09:38:46.185Z,60.99
2023-03-07T09:41:58.137Z,60.97
2023-03-07T09:45:14.014Z,61.00
2023-03-07T09:48:45.945Z,60.54
2023-03-07T09:51:43.206Z,60.04
2023-03-07T09:54:45.945Z,59.99
2023-03-07T09:57:43.762Z,60.18
2023-03-07T10:00:57.119Z,59.15
2023-03-07T10:03:55.381Z,58.18
2023-03-07T10:06:53.163Z,58.07
2023-03-07T10:09:42.695Z,58.14
2023-03-07T10:13:04.020Z,58.94
2023-03-07T10:15:59.916Z,58.03
2023-03-07T10:19:18.774Z,57.72
2023-03-07T10:22:14.604Z,57.20
2023-03-07T10:25:16.614Z,57.41
2023-03-07T10:28:17.000Z,57.79
2023-03-07T10:31:16.234Z,57.66
2023-03-07T10:34:26.338Z,57.04
2023-03-07T10:37:19.560Z,56.92
2023-03-07T10:40:17.298Z,57.38
2023-03-07T10:43:06.089Z,55.39
2023-03-07T10:45:59.863Z,55.24
2023-03-07T10:48:53.118Z,54.08
2023-03-07T10:51:51.702Z,54.07
2023-03-07T10:54:40.620Z,52.93
2023-03-07T10:57:29.065Z,51.50
2023-03-07T11:00:20.763Z,51.79
2023-03-07T11:03:23.756Z,51.59
2023-03-07T11:06:32.013Z,51.78
2023-03-07T11:09:25.061Z,51.92
2023-03-07T11:12:18.024Z,51.54
2023-03-07T11:15:16.485Z,51.29
2023-03-07T11:18:05.120Z,50.79
2023-03-07T11:20:53.743Z,51.28
2023-03-07T11:23:43.693Z,50.14
2023-03-07T11:26:34.119Z,49.39
2023-03-07T11:29:22.621Z,49.61
2023-03-07T11:32:15.323Z,50.64
2023-03-07T11:35:08.607Z,50.59
2023-03-07T11:38:03.152Z,50.05
2023-03-07T11:40:57.944Z,50.89
2023-03-07T11:44:06.858Z,50.04
2023-03-07T11:47:11.102Z,49.97
2023-03-07T11:50:12.783Z,49.46
2023-03-07T11:53:16.104Z,48.95
2023-03-07T11:56:20.523Z,50.19
2023-03-07T11:59:47.466Z,49.82
2023-03-07T12:02:49.296Z,49.45
2023-03-07T12:05:44.654Z,50.59
2023-03-07T12:08:50.549Z,50.79
2023-03-07T12:11:51.784Z,50.01
2023-03-07T12:14:46.408Z,49.67
2023-03-07T12:17:44.014Z,48.27
2023-03-07T12:20:38.937Z,48.44
2023-03-07T12:23:33.803Z,50.13
2023-03-07T12:26:25.768Z,50.52
2023-03-07T12:29:21.707Z,50.23
2023-03-07T12:32:13.291Z,50.51
2023-03-07T12:35:06.056Z,50.00
2023-03-07T12:38:00.404Z,50.35
2023-03-07T12:40:50.604Z,50.82
2023-03-07T12:43:43.639Z,51.05
2023-03-07T12:46:38.788Z,51.45
2023-03-07T12:49:41.019Z,51.17
2023-03-07T12:52:41.244Z,50.74
2023-03-07T12:55:33.960Z,49.85
2023-03-07T12:58:31.838Z,49.91
2023-03-07T13:01:22.734Z,50.65
2023-03-07T13:04:17.785Z,50.67
2023-03-07T13:07:09.213Z,49.83
2023-03-07T13:09:59.165Z,50.03
2023-03-07T13:12:48.012Z,49.97
2023-03-07T13:16:04.263Z,49.99
2023-03-07T13:18:52.770Z,49.70
2023-03-07T13:21:42.671Z,49.44
2023-03-07T13:24:36.624Z,48.75
2023-03-07T13:27:26.801Z,48.65
2023-03-07T13:30:19.603Z,48.02
2023-03-07T13:33:27.134Z,47.96
2023-03-07T13:36:34.401Z,47.57
2023-03-07T13:39:39.539Z,48.57
2023-03-07T13:42:47.287Z,48.71
2023-03-07T13:45:49.835Z,47.66
2023-03-07T13:49:00.870Z,47.26
2023-03-07T13:52:17.642Z,47.05
2023-03-07T13:55:24.081Z,46.46
2023-03-07T13:58:24.201Z,46.66
2023-03-07T14:01:14.900Z,46.51
2023-03-07T14:04:07.328Z,46.05
2023-03-07T14:06:58.202Z,47.19
2023-03-07T14:09:49.346Z,46.66
2023-03-07T14:12:48.820Z,46.82
2023-03-07T14:15:42.667Z,47.79
2023-03-07T14:18:52.311Z,47.64
2023-03-07T14:21:51.604Z,49.14
2023-03-07T14:25:06.210Z,49.47
2023-03-07T14:27:58.627Z,48.97
2023-03-07T14:30:55.570Z,48.95
2023-03-07T14:33:44.087Z,49.29
2023-03-07T14:36:33.606Z,49.88
2023-03-07T14:39:22.778Z,49.13
2023-03-07T14:42:19.188Z,50.42
2023-03-07T14:45:19.072Z,50.95
2023-03-07T14:48:23.859Z,50.67
2023-03-07T14:51:15.584Z,50.47
2023-03-07T14:54:08.921Z,50.34
2023-03-07T14:56:59.388Z,50.35
2023-03-07T15:00:14.860Z,50.90
2023-03-07T15:03:07.835Z,51.00
2023-03-07T15:05:57.686Z,50.91
2023-03-07T15:08:46.715Z,50.65
2023-03-07T15:11:40.264Z,51.02
2023-03-07T15:14:35.770Z,52.00
2023-03-07T15:17:27.757Z,50.76
2023-03-07T15:20:18.391Z,51.46
2023-03-07T15:23:09.312Z,51.14
2023-03-07T15:26:04.902Z,50.84
2023-03-07T15:28:59.564Z,50.60
2023-03-07T15:31:53.312Z,50.92
2023-03-07T15:34:43.169Z,50.56
2023-03-07T15:37:33.235Z,51.15
2023-03-07T15:40:27.680Z,51.55
2023-03-07T15:43:19.505Z,51.64
2023-03-07T15:46:14.608Z,52.09
2023-03-07T15:49:03.238Z,52.33
2023-03-07T15:51:55.300Z,51.69
2023-03-07T15:54:43.858Z,51.95
2023-03-07T15:57:34.946Z,52.29
2023-03-07T16:00:28.715Z,52.38
2023-03-07T16:03:28.267Z,52.86
2023-03-07T16:06:41.780Z,53.01
2023-03-07T16:09:31.711Z,53.50
2023-03-07T16:12:22.366Z,52.83
2023-03-07T16:15:14.403Z,52.62
2023-03-07T16:18:03.324Z,52.91
2023-03-07T16:20:51.814Z,53.99
2023-03-07T16:23:40.437Z,54.10
2023-03-07T16:26:30.330Z,53.25
2023-03-07T16:29:20.320Z,53.54
2023-03-07T16:32:11.538Z,54.17
2023-03-07T16:35:00.097Z,54.03
2023-03-07T16:37:48.863Z,53.47
2023-03-07T16:40:41.818Z,52.93
2023-03-07T16:43:36.396Z,52.82
2023-03-07T16:46:25.628Z,53.84
2023-03-07T16:49:18.034Z,53.41
2023-03-07T16:52:07.248Z,53.51
2023-03-07T16:54:55.673Z,53.57
2023-03-07T16:57:45.141Z,53.19
2023-03-07T17:00:35.001Z,53.37
2023-03-07T17:03:23.650Z,53.70
2023-03-07T17:06:16.237Z,54.30
2023-03-07T17:09:04.813Z,53.51
2023-03-07T17:11:53.599Z,53.81
2023-03-07T17:14:42.735Z,53.69
2023-03-07T17:17:34.693Z,53.85
2023-03-07T17:20:23.246Z,54.35
2023-03-07T17:23:11.774Z,53.97
2023-03-07T17:26:02.353Z,53.65
2023-03-07T17:28:51.083Z,53.74
2023-03-07T17:31:39.524Z,53.59
2023-03-07T17:34:30.806Z,54.03
2023-03-07T17:37:19.338Z,53.75
2023-03-07T17:40:10.339Z,53.63
2023-03-07T17:42:59.301Z,53.84
2023-03-07T17:45:47.850Z,54.26
2023-03-07T17:48:36.711Z,54.13
2023-03-07T17:51:26.550Z,54.41
2023-03-07T17:54:15.202Z,54.67
2023-03-07T17:57:04.348Z,54.11
2023-03-07T17:59:52.925Z,54.26
2023-03-07T18:02:43.656Z,54.14
2023-03-07T18:05:32.582Z,54.19
2023-03-07T18:08:22.556Z,53.98
2023-03-07T18:11:13.491Z,53.52
2023-03-07T18:14:03.694Z,53.54
2023-03-07T18:16:53.224Z,53.55
2023-03-07T18:19:42.125Z,53.75
2023-03-07T18:22:30.735Z,52.71
2023-03-07T18:25:21.758Z,52.73
2023-03-07T18:28:10.924Z,53.26
2023-03-07T18:31:00.300Z,52.88
2023-03-07T18:33:50.908Z,52.95
2023-03-07T18:36:40.966Z,52.80
2023-03-07T18:39:29.674Z,52.63
2023-03-07T18:42:20.101Z,52.96
2023-03-07T18:45:10.315Z,52.26
2023-03-07T18:47:59.133Z,53.63
2023-03-07T18:50:56.921Z,53.31
2023-03-07T18:53:46.017Z,52.75
2023-03-07T18:56:34.989Z,52.77
2023-03-07T18:59:25.516Z,53.44
2023-03-07T19:02:14.236Z,53.56
2023-03-07T19:05:02.906Z,53.13
2023-03-07T19:07:51.672Z,52.66
2023-03-07T19:10:40.395Z,53.39
2023-03-07T19:13:29.576Z,53.27
2023-03-07T19:16:22.747Z,53.34
2023-03-07T19:19:11.363Z,52.98
2023-03-07T19:21:59.976Z,53.11
2023-03-07T19:24:48.685Z,52.83
2023-03-07T19:27:37.446Z,53.41
2023-03-07T19:30:26.016Z,53.30
2023-03-07T19:33:16.038Z,53.51
2023-03-07T19:36:05.769Z,54.12
2023-03-07T19:38:56.465Z,54.18
2023-03-07T19:41:47.870Z,53.92
2023-03-07T19:44:36.566Z,54.16
2023-03-07T19:47:25.403Z,53.53
2023-03-07T19:50:15.377Z,53.37
2023-03-07T19:53:04.348Z,53.27
2023-03-07T19:55:53.135Z,53.48
2023-03-07T19:58:41.616Z,54.20
2023-03-07T20:01:31.180Z,53.13
2023-03-07T20:04:19.898Z,53.86
2023-03-07T20:07:09.806Z,53.29
2023-03-07T20:09:58.401Z,53.09
2023-03-07T20:12:47.571Z,53.30
2023-03-07T20:15:37.009Z,53.68
2023-03-07T20:18:25.645Z,54.22
2023-03-07T20:21:16.884Z,53.20
2023-03-07T20:24:08.125Z,53.29
2023-03-07T20:26:56.669Z,53.51
2023-03-07T20:29:45.253Z,53.05
2023-03-07T20:32:33.837Z,52.94
2023-03-07T20:35:22.373Z,53.49
2023-03-07T20:38:11.201Z,53.17
2023-03-07T20:41:06.252Z,53.08
2023-03-07T20:43:57.943Z,53.08
2023-03-07T20:46:48.097Z,52.87
2023-03-07T20:49:36.748Z,53.91
2023-03-07T20:52:26.088Z,53.76
2023-03-07T20:55:14.595Z,53.82
2023-03-07T20:58:04.487Z,53.83
2023-03-07T21:00:53.891Z,53.95
2023-03-07T21:03:42.554Z,53.38
2023-03-07T21:06:31.023Z,53.64
2023-03-07T21:09:20.405Z,54.19
2023-03-07T21:12:11.403Z,54.30
2023-03-07T21:15:01.231Z,54.26
2023-03-07T21:17:51.200Z,54.19
2023-03-07T21:20:40.507Z,54.41
2023-03-07T21:23:29.166Z,54.32
2023-03-07T21:26:19.621Z,53.96
2023-03-07T21:29:08.979Z,54.00
2023-03-07T21:31:58.933Z,54.40
2023-03-07T21:34:47.423Z,54.11
2023-03-07T21:37:37.459Z,54.09
2023-03-07T21:40:28.250Z,54.35
2023-03-07T21:43:16.781Z,54.40
2023-03-07T21:46:06.479Z,53.90
2023-03-07T21:48:59.173Z,53.88
2023-03-07T21:51:48.163Z,53.38
2023-03-07T21:54:36.621Z,53.57
2023-03-07T21:57:25.220Z,53.50
2023-03-07T22:00:16.424Z,53.72
2023-03-07T22:03:05.095Z,55.23
2023-03-07T22:05:57.227Z,55.26
2023-03-07T22:08:45.967Z,53.26
2023-03-07T22:11:34.407Z,54.11
2023-03-07T22:14:23.043Z,53.43
2023-03-07T22:17:11.517Z,52.15
2023-03-07T22:19:59.983Z,52.79
2023-03-07T22:22:49.879Z,52.89
2023-03-07T22:25:38.359Z,52.81
2023-03-07T22:28:26.988Z,53.03
2023-03-07T22:31:15.524Z,52.84
2023-03-07T22:34:04.361Z,52.76
2023-03-07T22:36:54.389Z,53.35
2023-03-07T22:39:44.230Z,53.40
2023-03-07T22:42:32.684Z,52.76
2023-03-07T22:45:21.177Z,53.22
2023-03-07T22:48:09.765Z,53.13
2023-03-07T22:50:58.661Z,53.67
2023-03-07T22:53:47.421Z,52.56
2023-03-07T22:56:37.259Z,53.24
2023-03-07T22:59:25.827Z,53.65
2023-03-07T23:02:14.358Z,53.67
2023-03-07T23:05:02.896Z,53.20
2023-03-07T23:07:51.652Z,53.36
2023-03-07T23:10:40.200Z,53.37
2023-03-07T23:13:30.023Z,53.77
2023-03-07T23:16:20.301Z,53.80
2023-03-07T23:19:09.189Z,53.62
2023-03-07T23:21:58.429Z,53.40
2023-03-07T23:24:47.172Z,54.07
2023-03-07T23:27:35.725Z,53.92
2023-03-07T23:30:25.613Z,53.68
2023-03-07T23:33:14.118Z,53.83
2023-03-07T23:36:02.692Z,53.96
2023-03-07T23:38:51.416Z,53.46
2023-03-07T23:41:40.612Z,53.61
2023-03-07T23:44:29.062Z,54.79
2023-03-07T23:47:18.947Z,54.07
2023-03-07T23:50:08.761Z,54.55
2023-03-07T23:52:57.276Z,54.49
2023-03-07T23:55:45.924Z,54.00
2023-03-07T23:58:34.526Z,53.99
